Nkishka No 2, AK

10:24 PM AKST on December 10, 2016 (GMT -0900)
McGahan | | Change Station

Elev 159 ft 60.73 °N, 151.30 °W | Updated 7 seconds ago

Clear
Clear
9.5 °F
Feels Like 10 °F
N
2.3
Wind Variable Wind from SE
Gusts 2.3 mph

Today
High -- | Low -- °F
--% Chance of Precip.
Yesterday
High -- | Low -- °F
Precip. -- in
Pressure 30.29 in
Visibility 10.0 miles
Clouds Clear
Windchill 10 °F
Dew Point 2 °F
Humidity 72%
Rainfall 0.00 in
Snow Depth Not available.
10:04 AM 3:52 PM
Waxing Gibbous, 89% visible
METAR PAEN 110653Z AUTO 05004KT 10SM CLR M22/M24 A3028 RMK AO2 SLP257 T12221244 TSNO
Pressure 30.29 in
Visibility 10.0 miles
Clouds Clear
Windchill 10 °F
Dew Point 2 °F
Humidity 72%
Rainfall 0.00 in
Snow Depth Not available.
10:04 AM 3:52 PM
Waxing Gibbous, 89% visible
METAR PAEN 110653Z AUTO 05004KT 10SM CLR M22/M24 A3028 RMK AO2 SLP257 T12221244 TSNO

10-Day Weather Forecast

Almanac

Astronomy

Dec. 10, 2016 Rise Set
Actual Time
Civil Twilight
Nautical Twilight
Astronomical Twilight
Moon
Length of Visible Light
Length of Day
Tomorrow will be .
, % of the Moon is Illuminated

Today's Extremes

State Highs State Lows

Community

WunderPhotos

Upload Photos

1,956,707 photos uploaded!

WunderBlog® & News

Nearby

Air Quality

  Air Quality AQ Index Pollutant
Not available.

Snow Depth

Station Depth Elevation

Earthquake Activity

City Distance Mag. Time & Date
Minimum magnitude displayed is 2.5.

Coastal Water Temperatures

Place Temperature

Stations

Nearby Weather Stations

Station Location Temp. Windchill Dew Point Humidity Wind Precip. Elev Updated Type
                   

Watches & Warnings

There are currently no watches in effect.